createdAt,value
2019-03-10T00:00:28.199Z,8.17
2019-03-10T00:02:56.656Z,8.50
2019-03-10T00:05:25.197Z,8.60
2019-03-10T00:07:53.779Z,8.67
2019-03-10T00:10:22.338Z,8.70
2019-03-10T00:12:51.072Z,8.77
2019-03-10T00:15:19.617Z,8.70
2019-03-10T00:17:48.453Z,8.77
2019-03-10T00:20:17.263Z,9.30
2019-03-10T00:22:46.022Z,8.07
2019-03-10T00:25:14.533Z,8.17
2019-03-10T00:27:43.049Z,9.40
2019-03-10T00:30:14.400Z,8.20
2019-03-10T00:32:42.999Z,8.93
2019-03-10T00:35:11.623Z,8.80
2019-03-10T00:37:40.455Z,8.70
2019-03-10T00:40:38.932Z,7.97
2019-03-10T00:43:43.432Z,8.60
2019-03-10T00:46:31.022Z,8.70
2019-03-10T00:49:11.291Z,8.90
2019-03-10T00:52:06.182Z,8.47
2019-03-10T00:54:34.646Z,8.70
2019-03-10T00:57:03.338Z,8.03
2019-03-10T00:59:32.191Z,7.90
2019-03-10T01:02:00.763Z,8.97
2019-03-10T01:04:29.331Z,8.37
2019-03-10T01:06:57.789Z,8.70
2019-03-10T01:09:26.240Z,8.63
2019-03-10T01:11:54.785Z,8.83
2019-03-10T01:14:23.554Z,8.50
2019-03-10T01:16:52.040Z,9.10
2019-03-10T01:19:20.877Z,7.93
2019-03-10T01:21:49.669Z,8.73
2019-03-10T01:24:18.119Z,8.60
2019-03-10T01:26:46.651Z,8.80
2019-03-10T01:29:15.159Z,8.47
2019-03-10T01:32:09.306Z,7.90
2019-03-10T01:34:58.680Z,8.33
2019-03-10T01:37:27.160Z,8.30
2019-03-10T01:39:55.716Z,8.30
2019-03-10T01:42:24.313Z,8.13
2019-03-10T01:44:53.027Z,8.87
2019-03-10T01:47:21.547Z,8.80
2019-03-10T01:49:50.039Z,8.70
2019-03-10T01:52:18.560Z,8.80
2019-03-10T01:54:47.300Z,8.97
2019-03-10T01:57:15.866Z,8.80
2019-03-10T01:59:44.352Z,8.07
2019-03-10T02:02:12.839Z,8.63
2019-03-10T02:04:41.380Z,9.03
2019-03-10T02:07:09.865Z,9.00
2019-03-10T02:09:38.373Z,8.10
2019-03-10T02:12:06.979Z,8.67
2019-03-10T02:14:35.529Z,8.43
2019-03-10T02:17:03.958Z,8.27
2019-03-10T02:19:32.706Z,8.30
2019-03-10T02:22:01.139Z,8.80
2019-03-10T02:24:29.624Z,9.60
2019-03-10T02:26:58.103Z,8.23
2019-03-10T02:29:29.284Z,8.50
2019-03-10T02:31:57.777Z,8.40
2019-03-10T02:34:26.145Z,8.47
2019-03-10T02:36:54.620Z,8.97
2019-03-10T02:39:23.074Z,8.50
2019-03-10T02:41:51.555Z,7.93
2019-03-10T02:44:20.301Z,8.00
2019-03-10T02:46:48.922Z,8.00
2019-03-10T02:49:17.309Z,8.57
2019-03-10T02:51:46.016Z,8.20
2019-03-10T02:54:14.436Z,8.40
2019-03-10T02:56:42.887Z,7.90
2019-03-10T02:59:11.616Z,8.70
2019-03-10T03:01:40.066Z,8.90
2019-03-10T03:04:08.660Z,8.50
2019-03-10T03:06:37.246Z,8.40
2019-03-10T03:09:06.446Z,7.90
2019-03-10T03:11:35.214Z,8.30
2019-03-10T03:14:05.673Z,8.83
2019-03-10T03:16:34.210Z,8.60
2019-03-10T03:19:02.676Z,8.43
2019-03-10T03:21:42.118Z,8.43
2019-03-10T03:24:01.617Z,8.90
2019-03-10T03:26:30.148Z,8.80
2019-03-10T03:28:58.685Z,8.60
2019-03-10T03:31:27.228Z,8.67
2019-03-10T03:33:55.742Z,8.50
2019-03-10T03:36:30.049Z,8.57
2019-03-10T03:39:07.329Z,8.87
2019-03-10T03:41:35.769Z,9.10
2019-03-10T03:44:04.296Z,8.83
2019-03-10T03:46:32.777Z,9.27
2019-03-10T03:49:01.217Z,9.60
2019-03-10T03:51:29.711Z,9.40
2019-03-10T03:53:58.237Z,9.07
2019-03-10T03:56:26.629Z,9.10
2019-03-10T03:58:55.086Z,9.23
2019-03-10T04:01:25.230Z,9.87
2019-03-10T04:03:53.796Z,9.57
2019-03-10T04:06:22.328Z,9.20
2019-03-10T04:08:50.839Z,10.03
2019-03-10T04:11:19.329Z,9.60
2019-03-10T04:13:47.842Z,9.73
2019-03-10T04:16:16.368Z,9.67
2019-03-10T04:18:44.906Z,9.90
2019-03-10T04:21:13.454Z,9.73
2019-03-10T04:23:41.989Z,10.70
2019-03-10T04:26:10.450Z,9.80
2019-03-10T04:28:38.950Z,9.53
2019-03-10T04:31:07.406Z,9.80
2019-03-10T04:33:35.853Z,9.80
2019-03-10T04:36:04.466Z,9.60
2019-03-10T04:38:33.130Z,9.97
2019-03-10T04:41:01.503Z,10.00
2019-03-10T04:43:30.012Z,9.80
2019-03-10T04:45:58.545Z,10.40
2019-03-10T04:48:27.053Z,9.83
2019-03-10T04:50:55.484Z,10.50
2019-03-10T04:53:23.935Z,9.60
2019-03-10T04:55:57.032Z,9.93
2019-03-10T04:58:26.001Z,9.87
2019-03-10T05:00:56.207Z,9.90
2019-03-10T05:03:24.692Z,10.27
2019-03-10T05:05:53.294Z,10.00
2019-03-10T05:08:21.797Z,11.00
2019-03-10T05:10:50.466Z,11.40
2019-03-10T05:13:19.010Z,10.07
2019-03-10T05:15:47.456Z,10.90
2019-03-10T05:18:15.953Z,10.60
2019-03-10T05:20:44.464Z,10.00
2019-03-10T05:23:29.719Z,11.70
2019-03-10T05:25:58.251Z,10.00
2019-03-10T05:28:27.083Z,10.30
2019-03-10T05:30:55.660Z,9.67
2019-03-10T05:33:24.225Z,10.60
2019-03-10T05:35:52.725Z,10.80
2019-03-10T05:38:21.190Z,10.20
2019-03-10T05:40:49.647Z,10.77
2019-03-10T05:43:18.273Z,10.50
2019-03-10T05:45:46.818Z,10.50
2019-03-10T05:48:15.522Z,10.70
2019-03-10T05:50:44.018Z,10.47
2019-03-10T05:53:12.656Z,10.60
2019-03-10T05:55:41.136Z,10.03
2019-03-10T05:58:09.597Z,10.40
2019-03-10T06:00:42.529Z,10.07
2019-03-10T06:03:08.420Z,10.53
2019-03-10T06:05:36.939Z,10.60
2019-03-10T06:08:05.451Z,10.83
2019-03-10T06:10:34.066Z,11.60
2019-03-10T06:13:02.439Z,10.10
2019-03-10T06:15:31.081Z,10.03
2019-03-10T06:17:59.619Z,10.50
2019-03-10T06:20:28.029Z,9.90
2019-03-10T06:22:56.478Z,10.37
2019-03-10T06:25:24.985Z,10.37
2019-03-10T06:27:53.590Z,9.37
2019-03-10T06:30:22.119Z,9.97
2019-03-10T06:32:50.602Z,9.60
2019-03-10T06:35:19.292Z,9.50
2019-03-10T06:37:47.858Z,9.90
2019-03-10T06:40:16.372Z,10.30
2019-03-10T06:42:44.825Z,9.40
2019-03-10T06:45:13.390Z,10.43
2019-03-10T06:47:41.830Z,10.30
2019-03-10T06:50:12.462Z,9.90
2019-03-10T06:52:41.076Z,9.43
2019-03-10T06:55:09.590Z,9.97
2019-03-10T06:57:38.077Z,10.30
2019-03-10T07:00:10.021Z,11.20
2019-03-10T07:02:38.515Z,9.83
2019-03-10T07:05:09.322Z,10.00
2019-03-10T07:07:38.017Z,9.67
2019-03-10T07:10:12.306Z,9.60
2019-03-10T07:12:41.375Z,10.37
2019-03-10T07:15:11.619Z,10.30
2019-03-10T07:17:40.115Z,10.23
2019-03-10T07:20:17.564Z,10.90
2019-03-10T07:22:46.510Z,9.70
2019-03-10T07:25:15.850Z,9.90
2019-03-10T07:27:51.629Z,10.53
2019-03-10T07:30:30.655Z,9.83
2019-03-10T07:33:18.729Z,10.47
2019-03-10T07:35:48.794Z,10.20
2019-03-10T07:38:18.908Z,10.27
2019-03-10T07:40:51.618Z,10.90
2019-03-10T07:43:21.707Z,10.57
2019-03-10T07:45:54.502Z,10.40
2019-03-10T07:48:27.335Z,10.43
2019-03-10T07:50:57.436Z,9.57
2019-03-10T07:53:30.341Z,10.20
2019-03-10T07:56:12.629Z,10.30
2019-03-10T07:58:42.732Z,10.00
2019-03-10T08:01:28.800Z,10.10
2019-03-10T08:04:16.935Z,10.07
2019-03-10T08:07:02.202Z,10.03
2019-03-10T08:09:32.557Z,11.13
2019-03-10T08:12:18.611Z,10.30
2019-03-10T08:14:49.062Z,10.00
2019-03-10T08:17:25.099Z,10.93
2019-03-10T08:20:00.658Z,10.73
2019-03-10T08:22:33.815Z,10.47
2019-03-10T08:25:03.937Z,10.20
2019-03-10T08:27:40.230Z,9.70
2019-03-10T08:30:29.412Z,10.83
2019-03-10T08:33:17.580Z,10.77
2019-03-10T08:35:59.290Z,10.00
2019-03-10T08:38:41.321Z,10.03
2019-03-10T08:41:11.470Z,9.97
2019-03-10T08:43:41.572Z,10.20
2019-03-10T08:46:11.667Z,10.23
2019-03-10T08:48:44.628Z,9.47
2019-03-10T08:51:17.452Z,10.43
2019-03-10T08:53:56.685Z,9.43
2019-03-10T08:56:32.995Z,10.10
2019-03-10T08:59:11.664Z,9.53
2019-03-10T09:01:53.639Z,10.27
2019-03-10T09:04:23.811Z,9.13
2019-03-10T09:06:53.916Z,9.50
2019-03-10T09:09:29.671Z,9.90
2019-03-10T09:12:19.031Z,10.07
2019-03-10T09:14:52.202Z,10.13
2019-03-10T09:17:30.960Z,9.30
2019-03-10T09:20:01.190Z,9.47
2019-03-10T09:22:37.554Z,9.53
2019-03-10T09:25:07.930Z,9.20
2019-03-10T09:27:56.506Z,9.60
2019-03-10T09:30:44.831Z,8.90
2019-03-10T09:33:17.368Z,9.10
2019-03-10T09:35:50.688Z,8.80
2019-03-10T09:38:20.874Z,9.73
2019-03-10T09:40:56.467Z,9.20
2019-03-10T09:43:34.187Z,10.23
2019-03-10T09:46:10.092Z,9.83
2019-03-10T09:48:56.716Z,9.57
2019-03-10T09:51:26.905Z,9.37
2019-03-10T09:53:56.967Z,9.33
2019-03-10T09:56:27.094Z,11.63
2019-03-10T09:59:00.454Z,9.60
2019-03-10T10:01:46.826Z,9.70
2019-03-10T10:04:19.587Z,10.17
2019-03-10T10:06:54.818Z,10.70
2019-03-10T10:09:33.615Z,9.90
2019-03-10T10:12:13.288Z,9.90
2019-03-10T10:14:50.142Z,10.20
2019-03-10T10:17:25.989Z,10.00
2019-03-10T10:20:11.201Z,9.57
2019-03-10T10:22:44.589Z,9.73
2019-03-10T10:25:29.701Z,10.40
2019-03-10T10:27:59.910Z,10.30
2019-03-10T10:30:46.095Z,10.60
2019-03-10T10:33:22.005Z,10.37
2019-03-10T10:35:57.838Z,10.03
2019-03-10T10:38:27.929Z,11.10
2019-03-10T10:41:14.883Z,11.27
2019-03-10T10:43:47.818Z,11.60
2019-03-10T10:46:17.974Z,11.43
2019-03-10T10:48:56.860Z,10.97
2019-03-10T10:51:29.947Z,10.40
2019-03-10T10:54:00.213Z,11.30
2019-03-10T10:56:46.008Z,11.60
2019-03-10T10:59:21.913Z,11.63
2019-03-10T11:01:55.036Z,11.50
2019-03-10T11:04:27.832Z,11.97
2019-03-10T11:07:03.593Z,11.37
2019-03-10T11:09:36.497Z,11.23
2019-03-10T11:12:15.269Z,10.50
2019-03-10T11:14:45.396Z,10.57
2019-03-10T11:17:18.465Z,10.77
2019-03-10T11:19:48.683Z,11.27
2019-03-10T11:22:28.148Z,10.90
2019-03-10T11:25:13.327Z,11.00
2019-03-10T11:27:43.506Z,10.33
2019-03-10T11:30:23.572Z,10.23
2019-03-10T11:32:53.847Z,9.20
2019-03-10T11:35:26.631Z,10.37
2019-03-10T11:37:56.862Z,11.30
2019-03-10T11:40:44.908Z,11.70
2019-03-10T11:43:15.039Z,9.43
2019-03-10T11:45:50.732Z,10.27
2019-03-10T11:48:20.856Z,9.30
2019-03-10T11:51:00.109Z,9.23
2019-03-10T11:53:36.767Z,9.23
2019-03-10T11:56:10.027Z,9.67
2019-03-10T11:58:46.320Z,8.50
2019-03-10T12:01:16.450Z,8.80
2019-03-10T12:03:46.708Z,9.40
2019-03-10T12:06:17.145Z,8.70
2019-03-10T12:08:47.502Z,8.60
2019-03-10T12:11:15.920Z,8.33
2019-03-10T12:13:44.537Z,8.53
2019-03-10T12:16:12.982Z,8.47
2019-03-10T12:18:41.492Z,8.23
2019-03-10T12:21:10.249Z,8.50
2019-03-10T12:23:38.768Z,8.47
2019-03-10T12:26:07.300Z,8.20
2019-03-10T12:28:35.837Z,8.80
2019-03-10T12:31:04.407Z,8.90
2019-03-10T12:33:32.946Z,8.13
2019-03-10T12:36:01.519Z,8.70
2019-03-10T12:38:30.161Z,8.33
2019-03-10T12:40:58.562Z,9.40
2019-03-10T12:43:27.095Z,9.43
2019-03-10T12:45:55.551Z,8.40
2019-03-10T12:48:24.023Z,9.70
2019-03-10T12:50:52.814Z,9.60
2019-03-10T12:53:21.573Z,9.40
2019-03-10T12:55:50.180Z,10.17
2019-03-10T12:58:18.717Z,10.60
2019-03-10T13:00:47.173Z,9.70
2019-03-10T13:03:15.673Z,9.53
2019-03-10T13:05:44.135Z,9.23
2019-03-10T13:08:13.043Z,9.57
2019-03-10T13:10:41.462Z,9.67
2019-03-10T13:13:10.077Z,9.57
2019-03-10T13:15:38.705Z,10.80
2019-03-10T13:18:07.634Z,9.67
2019-03-10T13:20:36.356Z,9.93
2019-03-10T13:23:05.220Z,10.00
2019-03-10T13:25:33.800Z,9.43
2019-03-10T13:28:02.271Z,9.90
2019-03-10T13:30:30.708Z,9.97
2019-03-10T13:32:59.160Z,9.20
2019-03-10T13:35:27.708Z,9.20
2019-03-10T13:37:56.206Z,9.80
2019-03-10T13:40:25.707Z,9.70
2019-03-10T13:42:54.239Z,9.50
2019-03-10T13:45:23.113Z,9.73
2019-03-10T13:47:51.629Z,9.83
2019-03-10T13:50:20.200Z,10.10
2019-03-10T13:52:48.699Z,9.00
2019-03-10T13:55:17.513Z,9.47
2019-03-10T13:57:46.188Z,8.77
2019-03-10T14:00:25.932Z,9.70
2019-03-10T14:02:54.424Z,9.13
2019-03-10T14:05:23.015Z,8.90
2019-03-10T14:07:51.612Z,9.37
2019-03-10T14:10:20.224Z,9.00
2019-03-10T14:12:58.592Z,8.83
2019-03-10T14:15:27.166Z,9.00
2019-03-10T14:17:55.625Z,8.90
2019-03-10T14:20:24.086Z,9.20
2019-03-10T14:22:52.478Z,10.13
2019-03-10T14:25:21.056Z,9.60
2019-03-10T14:27:50.053Z,10.17
2019-03-10T14:30:19.604Z,9.43
2019-03-10T14:32:48.094Z,9.40
2019-03-10T14:35:16.629Z,9.43
2019-03-10T14:37:45.169Z,9.50
2019-03-10T14:40:21.340Z,9.47
2019-03-10T14:42:49.866Z,9.30
2019-03-10T14:45:18.890Z,8.90
2019-03-10T14:47:47.443Z,10.50
2019-03-10T14:50:17.779Z,9.37
2019-03-10T14:52:46.405Z,9.43
2019-03-10T14:55:20.642Z,9.70
2019-03-10T14:57:49.304Z,9.47
2019-03-10T15:00:22.968Z,9.47
2019-03-10T15:02:51.568Z,9.13
2019-03-10T15:05:20.036Z,9.30
2019-03-10T15:07:48.681Z,9.50
2019-03-10T15:10:17.210Z,9.10
2019-03-10T15:12:45.860Z,9.07
2019-03-10T15:15:22.841Z,9.40
2019-03-10T15:17:50.676Z,9.30
2019-03-10T15:20:21.449Z,9.97
2019-03-10T15:22:49.605Z,10.90
2019-03-10T15:25:20.144Z,9.23
2019-03-10T15:27:48.648Z,9.30
2019-03-10T15:30:18.465Z,9.00
2019-03-10T15:32:47.070Z,8.93
2019-03-10T15:35:15.837Z,8.80
2019-03-10T15:37:44.410Z,9.13
2019-03-10T15:40:15.084Z,8.50
2019-03-10T15:42:44.228Z,9.37
2019-03-10T15:45:15.144Z,8.70
2019-03-10T15:47:43.660Z,8.70
2019-03-10T15:50:23.984Z,9.57
2019-03-10T15:52:52.416Z,9.43
2019-03-10T15:55:20.970Z,9.17
2019-03-10T15:57:50.752Z,10.00
2019-03-10T16:00:21.482Z,10.60
2019-03-10T16:02:49.995Z,10.37
2019-03-10T16:05:18.548Z,13.40
2019-03-10T16:07:46.970Z,9.90
2019-03-10T16:10:16.022Z,10.17
2019-03-10T16:12:44.801Z,11.10
2019-03-10T16:15:19.343Z,10.60
2019-03-10T16:17:48.750Z,10.00
2019-03-10T16:20:17.271Z,9.83
2019-03-10T16:22:45.743Z,11.20
2019-03-10T16:25:15.847Z,9.60
2019-03-10T16:27:44.484Z,9.80
2019-03-10T16:30:20.846Z,9.40
2019-03-10T16:32:49.939Z,9.60
2019-03-10T16:35:18.566Z,10.20
2019-03-10T16:37:47.421Z,9.93
2019-03-10T16:40:17.834Z,10.53
2019-03-10T16:42:46.350Z,11.27
2019-03-10T16:45:25.068Z,10.70
2019-03-10T16:47:53.842Z,9.93
2019-03-10T16:50:24.711Z,11.97
2019-03-10T16:52:53.417Z,11.40
2019-03-10T16:55:21.920Z,10.23
2019-03-10T16:57:50.539Z,8.60
2019-03-10T17:00:22.311Z,8.27
2019-03-10T17:02:52.034Z,9.03
2019-03-10T17:05:21.230Z,8.90
2019-03-10T17:07:49.820Z,9.03
2019-03-10T17:10:21.423Z,9.80
2019-03-10T17:12:50.057Z,8.80
2019-03-10T17:15:20.623Z,8.97
2019-03-10T17:17:49.227Z,9.00
2019-03-10T17:20:18.458Z,8.90
2019-03-10T17:22:47.267Z,8.77
2019-03-10T17:25:16.355Z,8.97
2019-03-10T17:27:45.295Z,9.40
2019-03-10T17:30:17.208Z,9.23
2019-03-10T17:32:45.853Z,9.27
2019-03-10T17:35:14.650Z,9.67
2019-03-10T17:37:43.193Z,9.97
2019-03-10T17:40:15.081Z,10.07
2019-03-10T17:42:43.705Z,9.90
2019-03-10T17:45:16.735Z,9.70
2019-03-10T17:47:45.238Z,9.60
2019-03-10T17:50:13.965Z,9.57
2019-03-10T17:52:42.570Z,9.37
2019-03-10T17:55:15.366Z,9.50
2019-03-10T17:57:44.031Z,20.70
2019-03-10T18:00:18.209Z,17.77
2019-03-10T18:02:46.822Z,17.00
2019-03-10T18:05:15.353Z,10.20
2019-03-10T18:07:43.868Z,10.40
2019-03-10T18:10:18.946Z,12.07
2019-03-10T18:12:47.526Z,9.90
2019-03-10T18:15:17.537Z,10.33
2019-03-10T18:17:46.237Z,10.33
2019-03-10T18:20:16.219Z,10.50
2019-03-10T18:22:44.871Z,9.60
2019-03-10T18:25:13.793Z,9.70
2019-03-10T18:27:42.531Z,9.50
2019-03-10T18:30:17.031Z,10.77
2019-03-10T18:32:45.610Z,11.50
2019-03-10T18:35:14.559Z,10.30
2019-03-10T18:37:43.333Z,11.00
2019-03-10T18:40:14.720Z,10.13
2019-03-10T18:42:43.203Z,10.20
2019-03-10T18:45:14.241Z,9.80
2019-03-10T18:47:43.077Z,10.17
2019-03-10T18:50:14.628Z,9.80
2019-03-10T18:52:43.517Z,9.97
2019-03-10T18:55:13.716Z,10.67
2019-03-10T18:57:42.324Z,10.77
2019-03-10T19:00:14.218Z,10.57
2019-03-10T19:02:42.733Z,10.60
2019-03-10T19:05:12.017Z,10.87
2019-03-10T19:07:40.753Z,11.20
2019-03-10T19:10:11.283Z,10.50
2019-03-10T19:12:39.919Z,10.03
2019-03-10T19:15:14.577Z,9.70
2019-03-10T19:17:43.131Z,10.00
2019-03-10T19:20:13.464Z,9.47
2019-03-10T19:22:42.054Z,9.17
2019-03-10T19:25:12.386Z,10.37
2019-03-10T19:27:40.933Z,9.73
2019-03-10T19:30:22.702Z,9.40
2019-03-10T19:32:51.260Z,9.87
2019-03-10T19:35:19.886Z,10.10
2019-03-10T19:37:48.359Z,10.00
2019-03-10T19:40:24.178Z,16.53
2019-03-10T19:42:52.896Z,10.33
2019-03-10T19:45:23.275Z,9.47
2019-03-10T19:47:52.171Z,9.90
2019-03-10T19:50:23.804Z,9.83
2019-03-10T19:52:52.435Z,9.83
2019-03-10T19:55:21.151Z,9.50
2019-03-10T19:57:49.776Z,10.30
2019-03-10T20:00:19.291Z,9.77
2019-03-10T20:02:47.927Z,9.50
2019-03-10T20:05:16.516Z,9.80
2019-03-10T20:07:46.052Z,9.83
2019-03-10T20:10:18.462Z,9.60
2019-03-10T20:12:47.966Z,10.70
2019-03-10T20:15:21.482Z,9.80
2019-03-10T20:17:50.432Z,10.30
2019-03-10T20:20:30.465Z,10.57
2019-03-10T20:23:01.204Z,10.03
2019-03-10T20:25:29.421Z,9.20
2019-03-10T20:27:57.992Z,9.37
2019-03-10T20:30:27.438Z,8.67
2019-03-10T20:32:56.030Z,8.87
2019-03-10T20:35:24.617Z,8.70
2019-03-10T20:37:53.323Z,9.07
2019-03-10T20:40:24.187Z,8.70
2019-03-10T20:42:52.821Z,8.50
2019-03-10T20:45:24.341Z,8.90
2019-03-10T20:47:52.453Z,9.00
2019-03-10T20:50:21.524Z,9.77
2019-03-10T20:52:50.315Z,8.83
2019-03-10T20:55:18.855Z,9.17
2019-03-10T20:57:47.472Z,9.40
2019-03-10T21:00:22.029Z,10.83
2019-03-10T21:02:50.636Z,8.70
2019-03-10T21:05:19.220Z,10.43
2019-03-10T21:07:48.279Z,8.80
2019-03-10T21:10:18.915Z,8.20
2019-03-10T21:12:47.570Z,8.77
2019-03-10T21:15:18.400Z,8.70
2019-03-10T21:17:47.048Z,8.90
2019-03-10T21:20:17.991Z,8.60
2019-03-10T21:22:47.022Z,9.27
2019-03-10T21:25:23.391Z,8.90
2019-03-10T21:27:52.328Z,8.90
2019-03-10T21:30:23.991Z,9.30
2019-03-10T21:32:52.697Z,9.27
2019-03-10T21:35:21.272Z,9.40
2019-03-10T21:37:49.873Z,9.97
2019-03-10T21:40:25.688Z,9.60
2019-03-10T21:42:54.247Z,9.97
2019-03-10T21:45:22.852Z,9.60
2019-03-10T21:47:51.462Z,9.90
2019-03-10T21:50:20.420Z,9.93
2019-03-10T21:52:49.151Z,9.73
2019-03-10T21:55:18.224Z,10.10
2019-03-10T21:57:46.767Z,10.13
2019-03-10T22:00:21.601Z,10.10
2019-03-10T22:02:50.216Z,10.20
2019-03-10T22:05:19.033Z,10.70
2019-03-10T22:07:48.039Z,10.73
2019-03-10T22:10:26.890Z,10.90
2019-03-10T22:12:48.919Z,11.03
2019-03-10T22:15:18.427Z,11.27
2019-03-10T22:17:47.119Z,10.73
2019-03-10T22:20:16.555Z,10.50
2019-03-10T22:22:49.322Z,11.47
2019-03-10T22:25:15.583Z,11.00
2019-03-10T22:27:45.666Z,11.87
2019-03-10T22:30:18.861Z,12.30
2019-03-10T22:32:47.379Z,11.67
2019-03-10T22:35:15.955Z,12.23
2019-03-10T22:37:44.394Z,12.63
2019-03-10T22:40:14.909Z,13.60
2019-03-10T22:42:43.514Z,13.13
2019-03-10T22:45:17.525Z,12.80
2019-03-10T22:47:46.084Z,12.23
2019-03-10T22:50:15.379Z,12.93
2019-03-10T22:52:43.978Z,12.50
2019-03-10T22:55:13.581Z,13.13
2019-03-10T22:57:42.434Z,12.50
2019-03-10T23:00:23.363Z,13.20
2019-03-10T23:02:51.938Z,13.13
2019-03-10T23:05:20.751Z,13.00
2019-03-10T23:07:49.656Z,14.43
2019-03-10T23:10:18.751Z,14.73
2019-03-10T23:12:47.696Z,12.67
2019-03-10T23:15:16.406Z,13.50
2019-03-10T23:17:46.023Z,13.30
2019-03-10T23:20:15.615Z,12.83
2019-03-10T23:22:44.117Z,13.27
2019-03-10T23:25:15.345Z,12.87
2019-03-10T23:27:44.018Z,12.97
2019-03-10T23:30:17.829Z,13.07
2019-03-10T23:32:46.383Z,13.70
2019-03-10T23:35:15.333Z,13.03
2019-03-10T23:37:44.927Z,11.33
2019-03-10T23:40:17.221Z,12.30
2019-03-10T23:42:46.007Z,11.77
2019-03-10T23:45:16.624Z,11.70
2019-03-10T23:47:45.105Z,12.20
2019-03-10T23:50:15.589Z,12.80
2019-03-10T23:52:44.151Z,11.30
2019-03-10T23:55:14.027Z,11.40
2019-03-10T23:57:42.484Z,11.47
